Fesco Vladimir — 5BSL2 — position and weather

sailwx.info

Track history (hours):
 
Tides and Currents Weather Stations Pressure Air Temp Water Temp Dewpoint Dewpoint Depression Visibility Wind Speed Wind Dir Waves Ship Positions

Fesco Vladimir

Last reported at 2018-Apr-22 05:00 UTC. Time now 2018-Apr-22 05:07 UTC.
Position N 57°43' E 010°56'.

Length 184 m; draft 10.2 m.

Type: Ship (hazmat cat A). MMSI: 209777000.

Date/timePositionNaut miles runAvg speedWind from/ knotsBaromVisibWave heightAir tempDewpointWater temp
2018-Apr-22 05:00N 57°43' E 010°56'714.9
2018-Apr-22 04:30N 57°38' E 011°07'815.4
2018-Apr-22 04:00N 57°33' E 011°17'815.5
2018-Apr-22 03:30N 57°27' E 011°27'815.6
2018-Apr-22 03:00N 57°20' E 011°33'815.5
2018-Apr-22 02:30N 57°13' E 011°37'815.2
2018-Apr-22 02:00N 57°05' E 011°40'815.0
2018-Apr-22 01:29N 56°58' E 011°45'1114.6
2018-Apr-22 00:44N 56°48' E 011°52'414.2
2018-Apr-22 00:28N 56°44' E 011°53'715.6
2018-Apr-22 00:00N 56°38' E 011°46'815.8
2018-Apr-21 23:29N 56°31' E 011°38'816.1
2018-Apr-21 23:00N 56°24' E 011°31'915.4
2018-Apr-21 22:26N 56°16' E 011°23'715.4
2018-Apr-21 21:58N 56°10' E 011°17'4913.2
2018-Apr-21 18:15N 55°22' E 011°02'313.6
2018-Apr-21 18:00N 55°18' E 011°03'713.2
2018-Apr-21 17:31N 55°12' E 011°06'713.4
2018-Apr-21 17:00N 55°06' E 010°59'713.6
2018-Apr-21 16:30N 54°60' E 010°59'713.4
2018-Apr-21 16:00N 54°54' E 010°52'713.5
2018-Apr-21 15:30N 54°48' E 010°50'713.5
2018-Apr-21 15:00N 54°41' E 010°47'714.6
2018-Apr-21 14:31N 54°37' E 010°57'714.1
2018-Apr-21 14:01N 54°37' E 011°09'714.7
2018-Apr-21 13:31N 54°34' E 011°21'714.7
2018-Apr-21 13:01N 54°31' E 011°32'714.9
2018-Apr-21 12:31N 54°28' E 011°44'714.7
2018-Apr-21 12:01N 54°26' E 011°57'714.6
2018-Apr-21 11:31N 54°26' E 012°09'612.7
2018-Apr-21 11:00N 54°32' E 012°14'4213.7
2018-Apr-21 07:56N 54°54' E 013°16'715.0
2018-Apr-21 07:30N 54°56' E 013°27'814.6
2018-Apr-21 06:59N 54°59' E 013°39'815.0
2018-Apr-21 06:26N 55°02' E 013°53'913.9
2018-Apr-21 05:46N 55°06' E 014°07'313.0
2018-Apr-21 05:30N 55°09' E 014°10'612.9
2018-Apr-21 05:00N 55°14' E 014°18'713.1
2018-Apr-21 04:30N 55°19' E 014°25'613.0
2018-Apr-21 04:00N 55°24' E 014°32'612.5
2018-Apr-21 03:30N 55°28' E 014°41'612.7
2018-Apr-21 03:00N 55°31' E 014°50'612.4
2018-Apr-21 02:30N 55°34' E 014°60'612.3
2018-Apr-21 02:00N 55°37' E 015°09'612.3
2018-Apr-21 01:30N 55°40' E 015°19'612.4
2018-Apr-21 01:01N 55°44' E 015°28'612.5
2018-Apr-21 00:30N 55°47' E 015°38'612.4
2018-Apr-21 00:00N 55°50' E 015°47'612.3
2018-Apr-20 23:30N 55°53' E 015°57'612.4
2018-Apr-20 23:00N 55°56' E 016°06'612.5
2018-Apr-20 22:30N 55°59' E 016°16'612.5
2018-Apr-20 22:00N 56°02' E 016°26'612.5
2018-Apr-20 21:30N 56°06' E 016°35'612.3
2018-Apr-20 21:00N 56°09' E 016°44'612.4
2018-Apr-20 20:30N 56°13' E 016°53'612.4
2018-Apr-20 20:00N 56°16' E 017°03'814.9
2018-Apr-20 19:30N 56°21' E 017°14'814.9
2018-Apr-20 18:58N 56°25' E 017°25'714.9
2018-Apr-20 18:31N 56°30' E 017°35'914.9
2018-Apr-20 17:53N 56°35' E 017°48'19414.9
2018-Apr-20 04:51N 59°07' E 021°35'515.0
2018-Apr-20 04:31N 59°10' E 021°42'815.0
2018-Apr-20 04:00N 59°16' E 021°52'2615.1
2018-Apr-20 02:18N 59°31' E 022°33'614.9
2018-Apr-20 01:55N 59°33' E 022°43'615.4
2018-Apr-20 01:31N 59°35' E 022°55'815.3
2018-Apr-20 01:00N 59°37' E 023°10'815.5
2018-Apr-20 00:31N 59°39' E 023°24'815.6
2018-Apr-20 00:01N 59°41' E 023°39'815.4
2018-Apr-19 23:30N 59°43' E 023°54'815.5
2018-Apr-19 23:01N 59°45' E 024°09'815.8
2018-Apr-19 22:31N 59°47' E 024°24'815.6
2018-Apr-19 22:00N 59°49' E 024°39'815.4
2018-Apr-19 21:30N 59°51' E 024°54'815.5
2018-Apr-19 21:01N 59°52' E 025°09'815.2
2018-Apr-19 20:30N 59°54' E 025°24'815.4
2018-Apr-19 19:58N 59°55' E 025°40'1615.5
2018-Apr-19 18:55N 59°59' E 026°12'615.3
2018-Apr-19 18:30N 60°00' E 026°25'715.1
2018-Apr-19 18:00N 60°01' E 026°39'815.4
2018-Apr-19 17:31N 59°60' E 026°54'714.5
2018-Apr-19 17:00N 60°01' E 027°09'815.2
2018-Apr-19 16:30N 60°05' E 027°21'715.1
2018-Apr-19 16:01N 60°09' E 027°34'714.7
2018-Apr-19 15:30N 60°12' E 027°48'815.4
2018-Apr-19 15:00N 60°10' E 028°03'815.1
2018-Apr-19 14:30N 60°08' E 028°17'714.8
2018-Apr-19 14:00N 60°04' E 028°30'714.9
2018-Apr-19 13:30N 60°03' E 028°45'715.0
2018-Apr-19 13:00N 60°03' E 028°60'815.1
2018-Apr-19 12:30N 60°02' E 029°15'713.5
2018-Apr-19 11:59N 60°02' E 029°29'5 9.5
2018-Apr-19 11:29N 60°00' E 029°38'5 9.5
2018-Apr-19 11:01N 59°58' E 029°46'510.9
2018-Apr-19 10:30N 59°56' E 029°56'510.2
2018-Apr-19 10:00N 59°54' E 030°06'3 6.0
2018-Apr-19 09:27N 59°53' E 030°12'1 1.2
2018-Apr-19 09:00N 59°52' E 030°12'0 0.0
2018-Apr-19 08:30N 59°52' E 030°12'0 0.0
2018-Apr-19 07:57N 59°52' E 030°12'0 0.0
2018-Apr-19 07:24N 59°52' E 030°12'0 0.0
2018-Apr-19 07:00N 59°52' E 030°12'0 0.0
2018-Apr-19 06:30N 59°52' E 030°12'0 0.0
2018-Apr-19 06:00N 59°52' E 030°12'0 0.0
2018-Apr-19 05:30N 59°52' E 030°12'0 0.0
2018-Apr-19 04:57N 59°52' E 030°12'0 0.0
2018-Apr-19 04:30N 59°52' E 030°12'0 0.0
2018-Apr-19 03:57N 59°52' E 030°12'0 0.0
2018-Apr-19 03:21N 59°52' E 030°12'0 0.0
2018-Apr-19 03:00N 59°52' E 030°12'0 0.0
2018-Apr-19 02:27N 59°52' E 030°12'0 0.0
2018-Apr-19 01:48N 59°52' E 030°12'0 0.0
2018-Apr-19 01:24N 59°52' E 030°12'0 0.0
2018-Apr-19 00:51N 59°52' E 030°12'0 0.0
2018-Apr-19 00:30N 59°52' E 030°12'0 0.0
2018-Apr-19 00:00N 59°52' E 030°12'0 0.0
2018-Apr-18 23:30N 59°52' E 030°12'0 0.1
2018-Apr-18 23:00N 59°52' E 030°12'1 1.5
2018-Apr-18 22:30N 59°53' E 030°11'0 0.1
2018-Apr-18 21:54N 59°53' E 030°11'0 0.0
2018-Apr-18 21:29N 59°53' E 030°11'0 0.0
2018-Apr-18 20:54N 59°53' E 030°11'0 0.0
2018-Apr-18 20:24N 59°53' E 030°11'0 0.0
2018-Apr-18 19:57N 59°53' E 030°11'0 0.0
2018-Apr-18 19:30N 59°53' E 030°11'0 0.0
2018-Apr-18 18:48N 59°53' E 030°11'0 0.0
2018-Apr-18 18:27N 59°53' E 030°11'0 0.0
2018-Apr-18 17:45N 59°53' E 030°11'0 0.0
2018-Apr-18 17:27N 59°53' E 030°11'0 0.0
2018-Apr-18 16:57N 59°53' E 030°11'0 0.0
2018-Apr-18 16:29N 59°53' E 030°11'0 0.0
2018-Apr-18 16:00N 59°53' E 030°11'0 0.0
2018-Apr-18 15:30N 59°53' E 030°11'0 0.0
2018-Apr-18 14:51N 59°53' E 030°11'0 0.0
2018-Apr-18 14:26N 59°53' E 030°11'0 0.0
2018-Apr-18 13:53N 59°53' E 030°11'0 0.0
2018-Apr-18 13:29N 59°53' E 030°11'0 0.0
2018-Apr-18 12:59N 59°53' E 030°11'0 0.0
2018-Apr-18 12:30N 59°53' E 030°11'0 0.0
2018-Apr-18 11:56N 59°53' E 030°11'0 0.0
2018-Apr-18 11:29N 59°53' E 030°11'0 0.0
2018-Apr-18 10:59N 59°53' E 030°11'0 0.0
2018-Apr-18 10:29N 59°53' E 030°11'0 0.0
2018-Apr-18 10:00N 59°53' E 030°11'0 0.0
2018-Apr-18 09:29N 59°53' E 030°11'0 0.0
2018-Apr-18 08:59N 59°53' E 030°11'0 0.0
2018-Apr-18 08:27N 59°53' E 030°11'0 0.0
2018-Apr-18 07:59N 59°53' E 030°11'0 0.0
2018-Apr-18 07:29N 59°53' E 030°11'0 0.0
2018-Apr-18 06:59N 59°53' E 030°11'0 0.0
2018-Apr-18 06:29N 59°53' E 030°11'0 0.0
2018-Apr-18 05:56N 59°53' E 030°11'0 0.0
2018-Apr-18 05:29N 59°53' E 030°11'0 0.0
2018-Apr-18 04:50N 59°53' E 030°11'0 0.0
2018-Apr-18 04:26N 59°53' E 030°11'0 0.0
2018-Apr-18 03:56N 59°53' E 030°11'0 0.0
2018-Apr-18 03:26N 59°53' E 030°11'0 0.0
2018-Apr-18 02:53N 59°53' E 030°11'0 0.0
2018-Apr-18 02:29N 59°53' E 030°11'0 0.0
2018-Apr-18 02:00N 59°53' E 030°11'2 4.1
2018-Apr-18 01:30N 59°54' E 030°08'5 9.5
2018-Apr-18 01:01N 59°55' E 029°59'612.0
2018-Apr-18 00:30N 59°58' E 029°48'2 3.1
2018-Apr-18 00:00N 59°58' E 029°45'2 4.8
2018-Apr-17 23:30N 59°56' E 029°41'0 0.0
2018-Apr-17 22:59N 59°56' E 029°41'0 0.0
2018-Apr-17 22:29N 59°56' E 029°41'0 0.0
2018-Apr-17 21:59N 59°56' E 029°41'0 0.0
2018-Apr-17 21:29N 59°56' E 029°41'0 0.0
2018-Apr-17 16:56N 59°56' E 029°41'0 0.0
2018-Apr-17 16:26N 59°56' E 029°41'0 0.0
2018-Apr-17 15:59N 59°56' E 029°41'0 0.0
2018-Apr-17 15:26N 59°56' E 029°41'0 0.0
2018-Apr-17 14:59N 59°56' E 029°41'0 0.0
2018-Apr-17 14:29N 59°56' E 029°41'0 0.0
2018-Apr-17 13:59N 59°56' E 029°41'0 0.0
2018-Apr-17 13:29N 59°56' E 029°41'0 0.0
2018-Apr-17 09:08N 59°56' E 029°41'0 0.0
2018-Apr-17 08:56N 59°56' E 029°41'0 0.0
2018-Apr-17 08:29N 59°56' E 029°41'0 0.0
2018-Apr-17 07:59N 59°56' E 029°41'0 0.0
2018-Apr-17 07:29N 59°56' E 029°41'2 0.3
2018-Apr-17 00:55N 59°57' E 029°44'3 6.4
2018-Apr-17 00:30N 59°60' E 029°41'612.4
2018-Apr-17 00:00N 60°01' E 029°29'4 8.2
2018-Apr-16 23:30N 60°02' E 029°21'612.5
2018-Apr-16 23:00N 60°02' E 029°09'612.6
2018-Apr-16 22:30N 60°02' E 028°56'612.8
2018-Apr-16 22:00N 60°02' E 028°43'5 9.7
2018-Apr-16 21:30N 59°58' E 028°36'4 7.7
2018-Apr-16 21:01N 59°55' E 028°33'611.9
2018-Apr-16 20:31N 59°50' E 028°26'610.8
2018-Apr-16 20:00N 59°45' E 028°24'4 8.3
2018-Apr-16 19:31N 59°41' E 028°24'0 0.4
2018-Apr-16 18:59N 59°40' E 028°24'0 0.0
2018-Apr-16 18:29N 59°40' E 028°24'0 0.0
2018-Apr-16 17:59N 59°40' E 028°24'0 0.0
2018-Apr-16 17:29N 59°40' E 028°24'0 0.0
2018-Apr-16 16:59N 59°40' E 028°24'0 0.0
2018-Apr-16 16:29N 59°40' E 028°24'0 0.0
2018-Apr-16 15:59N 59°40' E 028°24'0 0.0
2018-Apr-16 15:29N 59°40' E 028°24'0 0.0
2018-Apr-16 14:56N 59°40' E 028°24'0 0.0
2018-Apr-16 14:20N 59°40' E 028°24'0 0.0
2018-Apr-16 13:56N 59°40' E 028°24'0 0.0
2018-Apr-16 13:29N 59°40' E 028°24'0 0.0
2018-Apr-16 12:53N 59°40' E 028°24'0 0.0
2018-Apr-16 12:29N 59°40' E 028°24'0 0.0
2018-Apr-16 11:56N 59°40' E 028°24'0 0.0
2018-Apr-16 11:29N 59°40' E 028°24'0 0.0
2018-Apr-16 10:53N 59°40' E 028°24'0 0.0
2018-Apr-16 10:26N 59°40' E 028°24'0 0.0
2018-Apr-16 09:59N 59°40' E 028°24'0 0.0
2018-Apr-16 09:26N 59°40' E 028°24'0 0.0
2018-Apr-16 08:59N 59°40' E 028°24'0 0.0
2018-Apr-16 08:26N 59°40' E 028°24'0 0.0
2018-Apr-16 07:56N 59°40' E 028°24'0 0.7
2018-Apr-16 07:31N 59°41' E 028°24'3 5.5
2018-Apr-16 07:00N 59°43' E 028°23'4 7.8
2018-Apr-16 06:31N 59°47' E 028°25'815.4
2018-Apr-16 06:00N 59°54' E 028°31'3 5.6
2018-Apr-16 05:30N 59°57' E 028°34'3 5.3
2018-Apr-16 05:00N 59°59' E 028°35'3 5.3
2018-Apr-16 04:31N 60°02' E 028°36'3 6.3
2018-Apr-16 04:00N 60°03' E 028°29'4 8.1
2018-Apr-16 03:30N 60°04' E 028°22'611.1
2018-Apr-16 03:01N 60°07' E 028°13'612.5
2018-Apr-16 02:30N 60°09' E 028°01'612.4
2018-Apr-16 02:01N 60°11' E 027°49'611.7
2018-Apr-16 01:30N 60°08' E 027°38'5 9.9
2018-Apr-16 01:00N 60°06' E 027°29'510.4
2018-Apr-16 00:30N 60°03' E 027°20'713.0
2018-Apr-16 00:00N 59°60' E 027°09'612.2
2018-Apr-15 23:30N 59°58' E 026°58'612.9
2018-Apr-15 23:00N 59°59' E 026°45'612.7
2018-Apr-15 22:30N 59°59' E 026°32'612.9
2018-Apr-15 22:00N 59°57' E 026°20'2713.0
2018-Apr-15 19:55N 59°50' E 025°28'612.7
2018-Apr-15 19:28N 59°49' E 025°17'812.7
2018-Apr-15 18:51N 59°47' E 025°02'412.7
2018-Apr-15 18:31N 59°46' E 024°53'612.5
2018-Apr-15 18:00N 59°45' E 024°41'612.5
2018-Apr-15 17:31N 59°44' E 024°29'612.7
2018-Apr-15 17:00N 59°42' E 024°17'612.5
2018-Apr-15 16:30N 59°40' E 024°05'612.6
2018-Apr-15 16:00N 59°38' E 023°53'612.7
2018-Apr-15 15:30N 59°36' E 023°41'712.8
2018-Apr-15 14:59N 59°34' E 023°28'613.1
2018-Apr-15 14:30N 59°32' E 023°17'713.1
2018-Apr-15 13:58N 59°29' E 023°04'29113.0
2018-Apr-14 15:33N 56°02' E 016°41'113.6
2018-Apr-14 15:29N 56°02' E 016°40'713.3
2018-Apr-14 14:59N 55°58' E 016°29'613.1
2018-Apr-14 14:30N 55°55' E 016°20'713.1
2018-Apr-14 14:00N 55°52' E 016°10'613.0
2018-Apr-14 13:30N 55°49' E 015°60'713.1
2018-Apr-14 13:00N 55°46' E 015°49'713.2
2018-Apr-14 12:30N 55°42' E 015°39'713.1
2018-Apr-14 12:00N 55°39' E 015°29'713.1
2018-Apr-14 11:30N 55°36' E 015°19'612.8
2018-Apr-14 11:00N 55°33' E 015°09'612.9
2018-Apr-14 10:30N 55°30' E 014°59'613.0
2018-Apr-14 10:00N 55°27' E 014°49'713.2
2018-Apr-14 09:30N 55°23' E 014°39'713.3
2018-Apr-14 09:00N 55°19' E 014°31'713.4
2018-Apr-14 08:30N 55°13' E 014°23'713.6
2018-Apr-14 08:00N 55°08' E 014°16'713.5
2018-Apr-14 07:30N 55°03' E 014°08'713.2
2018-Apr-14 07:00N 54°59' E 013°58'1213.2
2018-Apr-14 06:05N 54°55' E 013°38'5312.3
2018-Apr-14 01:45N 54°31' E 012°16'313.0
2018-Apr-14 01:31N 54°28' E 012°15'611.3
2018-Apr-14 01:00N 54°25' E 012°07'1512.1
2018-Apr-13 23:44N 54°26' E 011°41'312.4
2018-Apr-13 23:30N 54°28' E 011°36'611.9
2018-Apr-13 22:59N 54°30' E 011°27'611.9
2018-Apr-13 22:30N 54°33' E 011°18'611.5
2018-Apr-13 22:00N 54°35' E 011°09'611.6
2018-Apr-13 21:30N 54°35' E 010°59'611.5
2018-Apr-13 21:00N 54°34' E 010°49'612.2
2018-Apr-13 20:30N 54°34' E 010°39'612.5
2018-Apr-13 20:00N 54°32' E 010°28'18 7.0
2018-Apr-13 17:24N 54°22' E 010°02'2 5.6
2018-Apr-13 16:59N 54°21' E 009°59'3 6.1
2018-Apr-13 16:29N 54°21' E 009°54'3 5.8
2018-Apr-13 16:00N 54°22' E 009°49'3 6.1
2018-Apr-13 15:30N 54°20' E 009°44'3 5.9
2018-Apr-13 15:00N 54°18' E 009°42'3 6.1
2018-Apr-13 14:30N 54°16' E 009°38'3 6.9
2018-Apr-13 14:00N 54°13' E 009°35'3 6.7
2018-Apr-13 13:30N 54°11' E 009°30'3 6.6
2018-Apr-13 13:00N 54°10' E 009°25'3 6.5
2018-Apr-13 12:30N 54°08' E 009°20'3 6.9
2018-Apr-13 12:00N 54°05' E 009°19'3 7.0
2018-Apr-13 11:30N 54°01' E 009°18'3 6.8
2018-Apr-13 11:00N 53°58' E 009°16'2 3.9
2018-Apr-13 10:30N 53°57' E 009°14'0 0.2
2018-Apr-13 10:00N 53°57' E 009°13'1 2.1
2018-Apr-13 09:31N 53°56' E 009°12'3 5.9
2018-Apr-13 09:00N 53°54' E 009°09'0 0.1
2018-Apr-13 08:30N 53°54' E 009°09'0 0.6
2018-Apr-13 08:00N 53°53' E 009°08'1 2.1
2018-Apr-13 07:30N 53°53' E 009°07'1 1.8
2018-Apr-13 07:00N 53°53' E 009°08'1 2.5
2018-Apr-13 06:29N 53°53' E 009°11'0 0.1
2018-Apr-13 05:59N 53°53' E 009°11'0 0.0
2018-Apr-13 05:29N 53°53' E 009°11'0 0.0
2018-Apr-13 04:59N 53°53' E 009°11'0 0.0
2018-Apr-13 04:29N 53°53' E 009°11'0 0.0
2018-Apr-13 03:59N 53°53' E 009°11'0 0.0
2018-Apr-13 03:29N 53°53' E 009°11'0 0.1
2018-Apr-13 02:59N 53°53' E 009°11'0 0.0
2018-Apr-13 02:29N 53°53' E 009°11'0 0.0
2018-Apr-13 01:59N 53°53' E 009°11'0 0.1
2018-Apr-13 01:29N 53°53' E 009°11'0 0.1
2018-Apr-13 00:59N 53°53' E 009°11'0 0.3
2018-Apr-13 00:29N 53°53' E 009°11'0 0.2
2018-Apr-12 23:59N 53°53' E 009°11'0 0.3
2018-Apr-12 23:26N 53°53' E 009°11'0 0.0
2018-Apr-12 22:59N 53°53' E 009°11'0 0.0
2018-Apr-12 22:29N 53°53' E 009°11'0 0.1
2018-Apr-12 21:59N 53°53' E 009°11'0 0.4
2018-Apr-12 21:29N 53°53' E 009°11'0 0.1
2018-Apr-12 20:59N 53°53' E 009°11'0 0.8
2018-Apr-12 20:30N 53°53' E 009°12'4 7.8
2018-Apr-12 20:00N 53°52' E 009°18'612.3
2018-Apr-12 19:30N 53°47' E 009°24'612.4
2018-Apr-12 19:00N 53°42' E 009°30'612.5
2018-Apr-12 18:30N 53°36' E 009°35'611.7
2018-Apr-12 18:00N 53°34' E 009°44'510.4
2018-Apr-12 17:30N 53°33' E 009°53'1 2.5
2018-Apr-12 16:59N 53°32' E 009°55'0 0.0
2018-Apr-12 16:29N 53°32' E 009°55'0 0.0
2018-Apr-12 15:59N 53°32' E 009°55'0 0.0
2018-Apr-12 15:29N 53°32' E 009°55'0 0.0
2018-Apr-12 14:59N 53°32' E 009°55'0 0.0
2018-Apr-12 14:30N 53°32' E 009°55'0 0.0
2018-Apr-12 13:59N 53°32' E 009°55'0 0.0
2018-Apr-12 13:29N 53°32' E 009°55'0 0.0
2018-Apr-12 12:59N 53°32' E 009°55'0 0.0
2018-Apr-12 12:29N 53°32' E 009°55'0 0.0
2018-Apr-12 11:59N 53°32' E 009°55'0 0.0
2018-Apr-12 11:30N 53°32' E 009°55'0 0.0
2018-Apr-12 10:59N 53°32' E 009°55'0 0.0
2018-Apr-12 10:29N 53°32' E 009°55'0 0.0
2018-Apr-12 09:59N 53°32' E 009°55'0 0.0
2018-Apr-12 09:29N 53°32' E 009°55'0 0.0
2018-Apr-12 08:59N 53°32' E 009°55'0 0.0
2018-Apr-12 08:29N 53°32' E 009°55'0 0.0
2018-Apr-12 07:59N 53°32' E 009°55'0 0.0
2018-Apr-12 07:29N 53°32' E 009°55'0 0.0
2018-Apr-12 06:59N 53°32' E 009°55'0 0.0
2018-Apr-12 06:29N 53°32' E 009°55'0 0.0
2018-Apr-12 05:59N 53°32' E 009°55'0 0.0
2018-Apr-12 05:29N 53°32' E 009°55'  
Track history (hours):
 
Tides and Currents Weather Stations Pressure Air Temp Water Temp Dewpoint Dewpoint Depression Visibility Wind Speed Wind Dir Waves Ship Positions

Fesco Vladimir

Last reported at 2018-Apr-22 05:00 UTC. Time now 2018-Apr-22 05:07 UTC.
Position N 57°43' E 010°56'.

Length 184 m; draft 10.2 m.

Type: Ship (hazmat cat A). MMSI: 209777000.

Date/timePositionNaut miles runAvg speedWind from/ knotsBaromVisibWave heightAir tempDewpointWater temp
2018-Apr-22 05:00N 57°43' E 010°56'714.9
2018-Apr-22 04:30N 57°38' E 011°07'815.4
2018-Apr-22 04:00N 57°33' E 011°17'815.5
2018-Apr-22 03:30N 57°27' E 011°27'815.6
2018-Apr-22 03:00N 57°20' E 011°33'815.5
2018-Apr-22 02:30N 57°13' E 011°37'815.2
2018-Apr-22 02:00N 57°05' E 011°40'815.0
2018-Apr-22 01:29N 56°58' E 011°45'1114.6
2018-Apr-22 00:44N 56°48' E 011°52'414.2
2018-Apr-22 00:28N 56°44' E 011°53'715.6
2018-Apr-22 00:00N 56°38' E 011°46'815.8
2018-Apr-21 23:29N 56°31' E 011°38'816.1
2018-Apr-21 23:00N 56°24' E 011°31'915.4
2018-Apr-21 22:26N 56°16' E 011°23'715.4
2018-Apr-21 21:58N 56°10' E 011°17'4913.2
2018-Apr-21 18:15N 55°22' E 011°02'313.6
2018-Apr-21 18:00N 55°18' E 011°03'713.2
2018-Apr-21 17:31N 55°12' E 011°06'713.4
2018-Apr-21 17:00N 55°06' E 010°59'713.6
2018-Apr-21 16:30N 54°60' E 010°59'713.4
2018-Apr-21 16:00N 54°54' E 010°52'713.5
2018-Apr-21 15:30N 54°48' E 010°50'713.5
2018-Apr-21 15:00N 54°41' E 010°47'714.6
2018-Apr-21 14:31N 54°37' E 010°57'714.1
2018-Apr-21 14:01N 54°37' E 011°09'714.7
2018-Apr-21 13:31N 54°34' E 011°21'714.7
2018-Apr-21 13:01N 54°31' E 011°32'714.9
2018-Apr-21 12:31N 54°28' E 011°44'714.7
2018-Apr-21 12:01N 54°26' E 011°57'714.6
2018-Apr-21 11:31N 54°26' E 012°09'612.7
2018-Apr-21 11:00N 54°32' E 012°14'4213.7
2018-Apr-21 07:56N 54°54' E 013°16'715.0
2018-Apr-21 07:30N 54°56' E 013°27'814.6
2018-Apr-21 06:59N 54°59' E 013°39'815.0
2018-Apr-21 06:26N 55°02' E 013°53'913.9
2018-Apr-21 05:46N 55°06' E 014°07'313.0
2018-Apr-21 05:30N 55°09' E 014°10'612.9
2018-Apr-21 05:00N 55°14' E 014°18'713.1
2018-Apr-21 04:30N 55°19' E 014°25'613.0
2018-Apr-21 04:00N 55°24' E 014°32'612.5
2018-Apr-21 03:30N 55°28' E 014°41'612.7
2018-Apr-21 03:00N 55°31' E 014°50'612.4
2018-Apr-21 02:30N 55°34' E 014°60'612.3
2018-Apr-21 02:00N 55°37' E 015°09'612.3
2018-Apr-21 01:30N 55°40' E 015°19'612.4
2018-Apr-21 01:01N 55°44' E 015°28'612.5
2018-Apr-21 00:30N 55°47' E 015°38'612.4
2018-Apr-21 00:00N 55°50' E 015°47'612.3
2018-Apr-20 23:30N 55°53' E 015°57'612.4
2018-Apr-20 23:00N 55°56' E 016°06'612.5
2018-Apr-20 22:30N 55°59' E 016°16'612.5
2018-Apr-20 22:00N 56°02' E 016°26'612.5
2018-Apr-20 21:30N 56°06' E 016°35'612.3
2018-Apr-20 21:00N 56°09' E 016°44'612.4
2018-Apr-20 20:30N 56°13' E 016°53'612.4
2018-Apr-20 20:00N 56°16' E 017°03'814.9
2018-Apr-20 19:30N 56°21' E 017°14'814.9
2018-Apr-20 18:58N 56°25' E 017°25'714.9
2018-Apr-20 18:31N 56°30' E 017°35'914.9
2018-Apr-20 17:53N 56°35' E 017°48'19414.9
2018-Apr-20 04:51N 59°07' E 021°35'515.0
2018-Apr-20 04:31N 59°10' E 021°42'815.0
2018-Apr-20 04:00N 59°16' E 021°52'2615.1
2018-Apr-20 02:18N 59°31' E 022°33'614.9
2018-Apr-20 01:55N 59°33' E 022°43'615.4
2018-Apr-20 01:31N 59°35' E 022°55'815.3
2018-Apr-20 01:00N 59°37' E 023°10'815.5
2018-Apr-20 00:31N 59°39' E 023°24'815.6
2018-Apr-20 00:01N 59°41' E 023°39'815.4
2018-Apr-19 23:30N 59°43' E 023°54'815.5
2018-Apr-19 23:01N 59°45' E 024°09'815.8
2018-Apr-19 22:31N 59°47' E 024°24'815.6
2018-Apr-19 22:00N 59°49' E 024°39'815.4
2018-Apr-19 21:30N 59°51' E 024°54'815.5
2018-Apr-19 21:01N 59°52' E 025°09'815.2
2018-Apr-19 20:30N 59°54' E 025°24'815.4
2018-Apr-19 19:58N 59°55' E 025°40'1615.5
2018-Apr-19 18:55N 59°59' E 026°12'615.3
2018-Apr-19 18:30N 60°00' E 026°25'715.1
2018-Apr-19 18:00N 60°01' E 026°39'815.4
2018-Apr-19 17:31N 59°60' E 026°54'714.5
2018-Apr-19 17:00N 60°01' E 027°09'815.2
2018-Apr-19 16:30N 60°05' E 027°21'715.1
2018-Apr-19 16:01N 60°09' E 027°34'714.7
2018-Apr-19 15:30N 60°12' E 027°48'815.4
2018-Apr-19 15:00N 60°10' E 028°03'815.1
2018-Apr-19 14:30N 60°08' E 028°17'714.8
2018-Apr-19 14:00N 60°04' E 028°30'714.9
2018-Apr-19 13:30N 60°03' E 028°45'715.0
2018-Apr-19 13:00N 60°03' E 028°60'815.1
2018-Apr-19 12:30N 60°02' E 029°15'713.5
2018-Apr-19 11:59N 60°02' E 029°29'5 9.5
2018-Apr-19 11:29N 60°00' E 029°38'5 9.5
2018-Apr-19 11:01N 59°58' E 029°46'510.9
2018-Apr-19 10:30N 59°56' E 029°56'510.2
2018-Apr-19 10:00N 59°54' E 030°06'3 6.0
2018-Apr-19 09:27N 59°53' E 030°12'1 1.2
2018-Apr-19 09:00N 59°52' E 030°12'0 0.0
2018-Apr-19 08:30N 59°52' E 030°12'0 0.0
2018-Apr-19 07:57N 59°52' E 030°12'0 0.0
2018-Apr-19 07:24N 59°52' E 030°12'0 0.0
2018-Apr-19 07:00N 59°52' E 030°12'0 0.0
2018-Apr-19 06:30N 59°52' E 030°12'0 0.0
2018-Apr-19 06:00N 59°52' E 030°12'0 0.0
2018-Apr-19 05:30N 59°52' E 030°12'0 0.0
2018-Apr-19 04:57N 59°52' E 030°12'0 0.0
2018-Apr-19 04:30N 59°52' E 030°12'0 0.0
2018-Apr-19 03:57N 59°52' E 030°12'0 0.0
2018-Apr-19 03:21N 59°52' E 030°12'0 0.0
2018-Apr-19 03:00N 59°52' E 030°12'0 0.0
2018-Apr-19 02:27N 59°52' E 030°12'0 0.0
2018-Apr-19 01:48N 59°52' E 030°12'0 0.0
2018-Apr-19 01:24N 59°52' E 030°12'0 0.0
2018-Apr-19 00:51N 59°52' E 030°12'0 0.0
2018-Apr-19 00:30N 59°52' E 030°12'0 0.0
2018-Apr-19 00:00N 59°52' E 030°12'0 0.0
2018-Apr-18 23:30N 59°52' E 030°12'0 0.1
2018-Apr-18 23:00N 59°52' E 030°12'1 1.5
2018-Apr-18 22:30N 59°53' E 030°11'0 0.1
2018-Apr-18 21:54N 59°53' E 030°11'0 0.0
2018-Apr-18 21:29N 59°53' E 030°11'0 0.0
2018-Apr-18 20:54N 59°53' E 030°11'0 0.0
2018-Apr-18 20:24N 59°53' E 030°11'0 0.0
2018-Apr-18 19:57N 59°53' E 030°11'0 0.0
2018-Apr-18 19:30N 59°53' E 030°11'0 0.0
2018-Apr-18 18:48N 59°53' E 030°11'0 0.0
2018-Apr-18 18:27N 59°53' E 030°11'0 0.0
2018-Apr-18 17:45N 59°53' E 030°11'0 0.0
2018-Apr-18 17:27N 59°53' E 030°11'0 0.0
2018-Apr-18 16:57N 59°53' E 030°11'0 0.0
2018-Apr-18 16:29N 59°53' E 030°11'0 0.0
2018-Apr-18 16:00N 59°53' E 030°11'0 0.0
2018-Apr-18 15:30N 59°53' E 030°11'0 0.0
2018-Apr-18 14:51N 59°53' E 030°11'0 0.0
2018-Apr-18 14:26N 59°53' E 030°11'0 0.0
2018-Apr-18 13:53N 59°53' E 030°11'0 0.0
2018-Apr-18 13:29N 59°53' E 030°11'0 0.0
2018-Apr-18 12:59N 59°53' E 030°11'0 0.0
2018-Apr-18 12:30N 59°53' E 030°11'0 0.0
2018-Apr-18 11:56N 59°53' E 030°11'0 0.0
2018-Apr-18 11:29N 59°53' E 030°11'0 0.0
2018-Apr-18 10:59N 59°53' E 030°11'0 0.0
2018-Apr-18 10:29N 59°53' E 030°11'0 0.0
2018-Apr-18 10:00N 59°53' E 030°11'0 0.0
2018-Apr-18 09:29N 59°53' E 030°11'0 0.0
2018-Apr-18 08:59N 59°53' E 030°11'0 0.0
2018-Apr-18 08:27N 59°53' E 030°11'0 0.0
2018-Apr-18 07:59N 59°53' E 030°11'0 0.0
2018-Apr-18 07:29N 59°53' E 030°11'0 0.0
2018-Apr-18 06:59N 59°53' E 030°11'0 0.0
2018-Apr-18 06:29N 59°53' E 030°11'0 0.0
2018-Apr-18 05:56N 59°53' E 030°11'0 0.0
2018-Apr-18 05:29N 59°53' E 030°11'0 0.0
2018-Apr-18 04:50N 59°53' E 030°11'0 0.0
2018-Apr-18 04:26N 59°53' E 030°11'0 0.0
2018-Apr-18 03:56N 59°53' E 030°11'0 0.0
2018-Apr-18 03:26N 59°53' E 030°11'0 0.0
2018-Apr-18 02:53N 59°53' E 030°11'0 0.0
2018-Apr-18 02:29N 59°53' E 030°11'0 0.0
2018-Apr-18 02:00N 59°53' E 030°11'2 4.1
2018-Apr-18 01:30N 59°54' E 030°08'5 9.5
2018-Apr-18 01:01N 59°55' E 029°59'612.0
2018-Apr-18 00:30N 59°58' E 029°48'2 3.1
2018-Apr-18 00:00N 59°58' E 029°45'2 4.8
2018-Apr-17 23:30N 59°56' E 029°41'0 0.0
2018-Apr-17 22:59N 59°56' E 029°41'0 0.0
2018-Apr-17 22:29N 59°56' E 029°41'0 0.0
2018-Apr-17 21:59N 59°56' E 029°41'0 0.0
2018-Apr-17 21:29N 59°56' E 029°41'0 0.0
2018-Apr-17 16:56N 59°56' E 029°41'0 0.0
2018-Apr-17 16:26N 59°56' E 029°41'0 0.0
2018-Apr-17 15:59N 59°56' E 029°41'0 0.0
2018-Apr-17 15:26N 59°56' E 029°41'0 0.0
2018-Apr-17 14:59N 59°56' E 029°41'0 0.0
2018-Apr-17 14:29N 59°56' E 029°41'0 0.0
2018-Apr-17 13:59N 59°56' E 029°41'0 0.0
2018-Apr-17 13:29N 59°56' E 029°41'0 0.0
2018-Apr-17 09:08N 59°56' E 029°41'0 0.0
2018-Apr-17 08:56N 59°56' E 029°41'0 0.0
2018-Apr-17 08:29N 59°56' E 029°41'0 0.0
2018-Apr-17 07:59N 59°56' E 029°41'0 0.0
2018-Apr-17 07:29N 59°56' E 029°41'2 0.3
2018-Apr-17 00:55N 59°57' E 029°44'3 6.4
2018-Apr-17 00:30N 59°60' E 029°41'612.4
2018-Apr-17 00:00N 60°01' E 029°29'4 8.2
2018-Apr-16 23:30N 60°02' E 029°21'612.5
2018-Apr-16 23:00N 60°02' E 029°09'612.6
2018-Apr-16 22:30N 60°02' E 028°56'612.8
2018-Apr-16 22:00N 60°02' E 028°43'5 9.7
2018-Apr-16 21:30N 59°58' E 028°36'4 7.7
2018-Apr-16 21:01N 59°55' E 028°33'611.9
2018-Apr-16 20:31N 59°50' E 028°26'610.8
2018-Apr-16 20:00N 59°45' E 028°24'4 8.3
2018-Apr-16 19:31N 59°41' E 028°24'0 0.4
2018-Apr-16 18:59N 59°40' E 028°24'0 0.0
2018-Apr-16 18:29N 59°40' E 028°24'0 0.0
2018-Apr-16 17:59N 59°40' E 028°24'0 0.0
2018-Apr-16 17:29N 59°40' E 028°24'0 0.0
2018-Apr-16 16:59N 59°40' E 028°24'0 0.0
2018-Apr-16 16:29N 59°40' E 028°24'0 0.0
2018-Apr-16 15:59N 59°40' E 028°24'0 0.0
2018-Apr-16 15:29N 59°40' E 028°24'0 0.0
2018-Apr-16 14:56N 59°40' E 028°24'0 0.0
2018-Apr-16 14:20N 59°40' E 028°24'0 0.0
2018-Apr-16 13:56N 59°40' E 028°24'0 0.0
2018-Apr-16 13:29N 59°40' E 028°24'0 0.0
2018-Apr-16 12:53N 59°40' E 028°24'0 0.0
2018-Apr-16 12:29N 59°40' E 028°24'0 0.0
2018-Apr-16 11:56N 59°40' E 028°24'0 0.0
2018-Apr-16 11:29N 59°40' E 028°24'0 0.0
2018-Apr-16 10:53N 59°40' E 028°24'0 0.0
2018-Apr-16 10:26N 59°40' E 028°24'0 0.0
2018-Apr-16 09:59N 59°40' E 028°24'0 0.0
2018-Apr-16 09:26N 59°40' E 028°24'0 0.0
2018-Apr-16 08:59N 59°40' E 028°24'0 0.0
2018-Apr-16 08:26N 59°40' E 028°24'0 0.0
2018-Apr-16 07:56N 59°40' E 028°24'0 0.7
2018-Apr-16 07:31N 59°41' E 028°24'3 5.5
2018-Apr-16 07:00N 59°43' E 028°23'4 7.8
2018-Apr-16 06:31N 59°47' E 028°25'815.4
2018-Apr-16 06:00N 59°54' E 028°31'3 5.6
2018-Apr-16 05:30N 59°57' E 028°34'3 5.3
2018-Apr-16 05:00N 59°59' E 028°35'3 5.3
2018-Apr-16 04:31N 60°02' E 028°36'3 6.3
2018-Apr-16 04:00N 60°03' E 028°29'4 8.1
2018-Apr-16 03:30N 60°04' E 028°22'611.1
2018-Apr-16 03:01N 60°07' E 028°13'612.5
2018-Apr-16 02:30N 60°09' E 028°01'612.4
2018-Apr-16 02:01N 60°11' E 027°49'611.7
2018-Apr-16 01:30N 60°08' E 027°38'5 9.9
2018-Apr-16 01:00N 60°06' E 027°29'510.4
2018-Apr-16 00:30N 60°03' E 027°20'713.0
2018-Apr-16 00:00N 59°60' E 027°09'612.2
2018-Apr-15 23:30N 59°58' E 026°58'612.9
2018-Apr-15 23:00N 59°59' E 026°45'612.7
2018-Apr-15 22:30N 59°59' E 026°32'612.9
2018-Apr-15 22:00N 59°57' E 026°20'2713.0
2018-Apr-15 19:55N 59°50' E 025°28'612.7
2018-Apr-15 19:28N 59°49' E 025°17'812.7
2018-Apr-15 18:51N 59°47' E 025°02'412.7
2018-Apr-15 18:31N 59°46' E 024°53'612.5
2018-Apr-15 18:00N 59°45' E 024°41'612.5
2018-Apr-15 17:31N 59°44' E 024°29'612.7
2018-Apr-15 17:00N 59°42' E 024°17'612.5
2018-Apr-15 16:30N 59°40' E 024°05'612.6
2018-Apr-15 16:00N 59°38' E 023°53'612.7
2018-Apr-15 15:30N 59°36' E 023°41'712.8
2018-Apr-15 14:59N 59°34' E 023°28'613.1
2018-Apr-15 14:30N 59°32' E 023°17'713.1
2018-Apr-15 13:58N 59°29' E 023°04'29113.0
2018-Apr-14 15:33N 56°02' E 016°41'113.6
2018-Apr-14 15:29N 56°02' E 016°40'713.3
2018-Apr-14 14:59N 55°58' E 016°29'613.1
2018-Apr-14 14:30N 55°55' E 016°20'713.1
2018-Apr-14 14:00N 55°52' E 016°10'613.0
2018-Apr-14 13:30N 55°49' E 015°60'713.1
2018-Apr-14 13:00N 55°46' E 015°49'713.2
2018-Apr-14 12:30N 55°42' E 015°39'713.1
2018-Apr-14 12:00N 55°39' E 015°29'713.1
2018-Apr-14 11:30N 55°36' E 015°19'612.8
2018-Apr-14 11:00N 55°33' E 015°09'612.9
2018-Apr-14 10:30N 55°30' E 014°59'613.0
2018-Apr-14 10:00N 55°27' E 014°49'713.2
2018-Apr-14 09:30N 55°23' E 014°39'713.3
2018-Apr-14 09:00N 55°19' E 014°31'713.4
2018-Apr-14 08:30N 55°13' E 014°23'713.6
2018-Apr-14 08:00N 55°08' E 014°16'713.5
2018-Apr-14 07:30N 55°03' E 014°08'713.2
2018-Apr-14 07:00N 54°59' E 013°58'1213.2
2018-Apr-14 06:05N 54°55' E 013°38'5312.3
2018-Apr-14 01:45N 54°31' E 012°16'313.0
2018-Apr-14 01:31N 54°28' E 012°15'611.3
2018-Apr-14 01:00N 54°25' E 012°07'1512.1
2018-Apr-13 23:44N 54°26' E 011°41'312.4
2018-Apr-13 23:30N 54°28' E 011°36'611.9
2018-Apr-13 22:59N 54°30' E 011°27'611.9
2018-Apr-13 22:30N 54°33' E 011°18'611.5
2018-Apr-13 22:00N 54°35' E 011°09'611.6
2018-Apr-13 21:30N 54°35' E 010°59'611.5
2018-Apr-13 21:00N 54°34' E 010°49'612.2
2018-Apr-13 20:30N 54°34' E 010°39'612.5
2018-Apr-13 20:00N 54°32' E 010°28'18 7.0
2018-Apr-13 17:24N 54°22' E 010°02'2 5.6
2018-Apr-13 16:59N 54°21' E 009°59'3 6.1
2018-Apr-13 16:29N 54°21' E 009°54'3 5.8
2018-Apr-13 16:00N 54°22' E 009°49'3 6.1
2018-Apr-13 15:30N 54°20' E 009°44'3 5.9
2018-Apr-13 15:00N 54°18' E 009°42'3 6.1
2018-Apr-13 14:30N 54°16' E 009°38'3 6.9
2018-Apr-13 14:00N 54°13' E 009°35'3 6.7
2018-Apr-13 13:30N 54°11' E 009°30'3 6.6
2018-Apr-13 13:00N 54°10' E 009°25'3 6.5
2018-Apr-13 12:30N 54°08' E 009°20'3 6.9
2018-Apr-13 12:00N 54°05' E 009°19'3 7.0
2018-Apr-13 11:30N 54°01' E 009°18'3 6.8
2018-Apr-13 11:00N 53°58' E 009°16'2 3.9
2018-Apr-13 10:30N 53°57' E 009°14'0 0.2
2018-Apr-13 10:00N 53°57' E 009°13'1 2.1
2018-Apr-13 09:31N 53°56' E 009°12'3 5.9
2018-Apr-13 09:00N 53°54' E 009°09'0 0.1
2018-Apr-13 08:30N 53°54' E 009°09'0 0.6
2018-Apr-13 08:00N 53°53' E 009°08'1 2.1
2018-Apr-13 07:30N 53°53' E 009°07'1 1.8
2018-Apr-13 07:00N 53°53' E 009°08'1 2.5
2018-Apr-13 06:29N 53°53' E 009°11'0 0.1
2018-Apr-13 05:59N 53°53' E 009°11'0 0.0
2018-Apr-13 05:29N 53°53' E 009°11'0 0.0
2018-Apr-13 04:59N 53°53' E 009°11'0 0.0
2018-Apr-13 04:29N 53°53' E 009°11'0 0.0
2018-Apr-13 03:59N 53°53' E 009°11'0 0.0
2018-Apr-13 03:29N 53°53' E 009°11'0 0.1
2018-Apr-13 02:59N 53°53' E 009°11'0 0.0
2018-Apr-13 02:29N 53°53' E 009°11'0 0.0
2018-Apr-13 01:59N 53°53' E 009°11'0 0.1
2018-Apr-13 01:29N 53°53' E 009°11'0 0.1
2018-Apr-13 00:59N 53°53' E 009°11'0 0.3
2018-Apr-13 00:29N 53°53' E 009°11'0 0.2
2018-Apr-12 23:59N 53°53' E 009°11'0 0.3
2018-Apr-12 23:26N 53°53' E 009°11'0 0.0
2018-Apr-12 22:59N 53°53' E 009°11'0 0.0
2018-Apr-12 22:29N 53°53' E 009°11'0 0.1
2018-Apr-12 21:59N 53°53' E 009°11'0 0.4
2018-Apr-12 21:29N 53°53' E 009°11'0 0.1
2018-Apr-12 20:59N 53°53' E 009°11'0 0.8
2018-Apr-12 20:30N 53°53' E 009°12'4 7.8
2018-Apr-12 20:00N 53°52' E 009°18'612.3
2018-Apr-12 19:30N 53°47' E 009°24'612.4
2018-Apr-12 19:00N 53°42' E 009°30'612.5
2018-Apr-12 18:30N 53°36' E 009°35'611.7
2018-Apr-12 18:00N 53°34' E 009°44'510.4
2018-Apr-12 17:30N 53°33' E 009°53'1 2.5
2018-Apr-12 16:59N 53°32' E 009°55'0 0.0
2018-Apr-12 16:29N 53°32' E 009°55'0 0.0
2018-Apr-12 15:59N 53°32' E 009°55'0 0.0
2018-Apr-12 15:29N 53°32' E 009°55'0 0.0
2018-Apr-12 14:59N 53°32' E 009°55'0 0.0
2018-Apr-12 14:30N 53°32' E 009°55'0 0.0
2018-Apr-12 13:59N 53°32' E 009°55'0 0.0
2018-Apr-12 13:29N 53°32' E 009°55'0 0.0
2018-Apr-12 12:59N 53°32' E 009°55'0 0.0
2018-Apr-12 12:29N 53°32' E 009°55'0 0.0
2018-Apr-12 11:59N 53°32' E 009°55'0 0.0
2018-Apr-12 11:30N 53°32' E 009°55'0 0.0
2018-Apr-12 10:59N 53°32' E 009°55'0 0.0
2018-Apr-12 10:29N 53°32' E 009°55'0 0.0
2018-Apr-12 09:59N 53°32' E 009°55'0 0.0
2018-Apr-12 09:29N 53°32' E 009°55'0 0.0
2018-Apr-12 08:59N 53°32' E 009°55'0 0.0
2018-Apr-12 08:29N 53°32' E 009°55'0 0.0
2018-Apr-12 07:59N 53°32' E 009°55'0 0.0
2018-Apr-12 07:29N 53°32' E 009°55'0 0.0
2018-Apr-12 06:59N 53°32' E 009°55'0 0.0
2018-Apr-12 06:29N 53°32' E 009°55'0 0.0
2018-Apr-12 05:59N 53°32' E 009°55'0 0.0
2018-Apr-12 05:29N 53°32' E 009°55'  

Dump ship's entire track history